LPPT/LIS METAR and TAF weather

Enter ICAO airport designator
Station Type Date Time Source
LPPT METAR 2020/04/05 13:00 UTC NOAA

LPPT 051300Z 20018KT 8000 -RA FEW008 BKN010 17/16 Q1012


Station Type Date Time Source
LPPT Decoded METAR 2020/04/05 13:00 UTC NOAA

Lisboa / Portela, Portugal (LPPT) 38-46N 009-08W 123M
Apr 05, 2020 - 09:00 AM EDT / 2020.04.05 1300 UTC
Wind: from the SSW (200 degrees) at 21 MPH (18 KT):0
Visibility: 4 mile(s):0
Sky conditions: mostly cloudy
Weather: light rain
Temperature: 62 F (17 C)
Dew Point: 60 F (16 C)
Relative Humidity: 93%
Pressure (altimeter): 29.88 in. Hg (1012 hPa)
ob: LPPT 051300Z 20018KT 8000 -RA FEW008 BKN010 17/16 Q1012
cycle: 13

Station Type Date Time Source
LPPT TAF 2020/04/05 12:18 UTC NOAA

TAF LPPT 051130Z 0512/0618 18015KT 9999 SCT006 BKN010
TEMPO 0512/0518 3000 RADZ BR SCT002 BKN004
BECMG 0516/0518 27008KT SCT012
BECMG 0521/0524 VRB02KT SCT005
TEMPO 0600/0609 2000 DZ BR BKN003
BECMG 0608/0610 13008KT SCT015
BECMG 0615/0617 18012KT 5000 RA SCT003 BKN006

Example: see airport list